Time;durP1;ratioP1;P1;durP2;ratioP2;P2;SDS_P1;SDS_P2;PMS_P1;PMS_P2;Temp;Humidity;BMP_temperature;BMP_pressure;BME280_temperature;BME280_humidity;BME280_pressure;Samples;Min_cycle;Max_cycle;Signal;HPM_P1;HPM_P2
2021/10/03 00:00:57;;;;;;;4.88;2.55;;;17.20;96.90;;;;;;5039700;28;20025;-66
2021/10/03 00:03:26;;;;;;;4.45;2.60;;;17.30;96.70;;;;;;5039358;28;20028;-66
2021/10/03 00:05:57;;;;;;;3.30;2.15;;;17.30;96.60;;;;;;5039242;28;20321;-66
2021/10/03 00:08:26;;;;;;;4.68;2.65;;;17.40;96.20;;;;;;5039291;28;20033;-66
2021/10/03 00:10:54;;;;;;;5.10;2.78;;;17.40;96.20;;;;;;5021647;28;20033;-66
2021/10/03 00:13:26;;;;;;;6.05;2.60;;;17.50;96.20;;;;;;5040154;28;20021;-66
2021/10/03 00:15:55;;;;;;;4.65;2.30;;;17.50;95.70;;;;;;5040564;28;20056;-66
2021/10/03 00:18:24;;;;;;;4.57;2.58;;;17.60;95.70;;;;;;5039849;28;20029;-66
2021/10/03 00:20:52;;;;;;;4.10;2.40;;;17.60;95.60;;;;;;5040223;28;20083;-66
2021/10/03 00:23:20;;;;;;;6.60;2.22;;;17.60;95.30;;;;;;5038912;28;20026;-66
2021/10/03 00:25:48;;;;;;;6.57;2.72;;;17.60;95.20;;;;;;5022355;28;20049;-66
2021/10/03 00:28:16;;;;;;;7.40;2.17;;;17.70;95.20;;;;;;5039801;28;20025;-66
2021/10/03 00:30:45;;;;;;;3.40;2.20;;;17.80;95.00;;;;;;5039978;28;20022;-66
2021/10/03 00:33:12;;;;;;;3.72;2.45;;;17.80;94.80;;;;;;5038718;28;20356;-66
2021/10/03 00:35:40;;;;;;;5.10;2.67;;;17.90;94.80;;;;;;5038831;28;20030;-67
2021/10/03 00:38:09;;;;;;;3.22;1.95;;;17.80;95.00;;;;;;5038604;28;20081;-66
2021/10/03 00:40:41;;;;;;;6.28;2.50;;;17.80;94.50;;;;;;5038783;28;20030;-66
2021/10/03 00:43:12;;;;;;;4.57;2.28;;;17.90;94.40;;;;;;5038645;28;20060;-67
2021/10/03 00:45:41;;;;;;;8.20;2.47;;;17.90;94.00;;;;;;5039136;28;20025;-67
2021/10/03 00:48:08;;;;;;;7.75;2.90;;;18.00;94.00;;;;;;5038391;28;20437;-66
2021/10/03 00:50:36;;;;;;;5.60;2.30;;;18.10;94.10;;;;;;5038680;28;20033;-66
2021/10/03 00:53:04;;;;;;;5.45;2.47;;;18.10;94.00;;;;;;5039516;28;20029;-66
2021/10/03 00:55:33;;;;;;;4.25;2.42;;;18.10;93.90;;;;;;5039399;28;20029;-66
2021/10/03 00:58:00;;;;;;;4.38;2.50;;;18.10;93.60;;;;;;5039239;28;20021;-66
2021/10/03 01:00:30;;;;;;;4.95;2.30;;;18.10;93.60;;;;;;5039955;28;20043;-66
2021/10/03 01:02:59;;;;;;;8.07;4.45;;;18.10;93.70;;;;;;5039137;28;20022;-66
2021/10/03 01:05:26;;;;;;;3.78;2.20;;;18.10;93.40;;;;;;5040191;28;20293;-66
2021/10/03 01:07:54;;;;;;;4.05;2.50;;;18.20;93.20;;;;;;5021683;28;20041;-66
2021/10/03 01:10:24;;;;;;;3.53;2.47;;;18.20;93.20;;;;;;5039220;28;20104;-66
2021/10/03 01:13:02;;;;;;;4.75;2.30;;;18.20;93.40;;;;;;5037163;28;20311;-66
2021/10/03 01:15:35;;;;;;;6.18;2.50;;;18.30;93.00;;;;;;5038866;28;20048;-66
2021/10/03 01:18:05;;;;;;;5.18;2.45;;;18.30;93.10;;;;;;5037977;28;20032;-67
2021/10/03 01:20:34;;;;;;;3.35;2.20;;;18.30;92.70;;;;;;5038136;28;20056;-67
2021/10/03 01:23:03;;;;;;;4.00;2.45;;;18.40;92.90;;;;;;5037903;28;20315;-66
2021/10/03 01:25:42;;;;;;;3.00;1.75;;;18.30;92.70;;;;;;5038385;28;20124;-66
2021/10/03 01:28:09;;;;;;;8.50;2.92;;;18.30;92.70;;;;;;5037827;28;20100;-66
2021/10/03 01:30:39;;;;;;;4.65;2.53;;;18.30;92.60;;;;;;5037958;28;20026;-66
2021/10/03 01:33:08;;;;;;;6.18;2.47;;;18.30;92.70;;;;;;5037643;28;20026;-66
2021/10/03 01:35:36;;;;;;;4.45;2.53;;;18.30;92.60;;;;;;5038838;28;20049;-66
2021/10/03 01:38:05;;;;;;;3.80;2.35;;;18.30;92.50;;;;;;5038439;28;20514;-66
2021/10/03 01:40:33;;;;;;;6.75;2.80;;;18.40;92.30;;;;;;5038941;28;20025;-66
2021/10/03 01:43:00;;;;;;;6.35;2.55;;;18.40;92.30;;;;;;5038506;28;20049;-67
2021/10/03 01:45:28;;;;;;;3.75;1.88;;;18.50;92.20;;;;;;5038389;28;20032;-66
2021/10/03 01:48:24;;;;;;;8.93;2.47;;;18.50;92.10;;;;;;5038777;28;20033;-67
2021/10/03 01:50:56;;;;;;;3.42;2.10;;;18.60;92.00;;;;;;5037381;28;20148;-66
2021/10/03 01:53:26;;;;;;;4.13;2.42;;;18.60;92.00;;;;;;5038171;28;20021;-66
2021/10/03 01:55:54;;;;;;;4.50;2.30;;;18.60;91.90;;;;;;5037176;28;20052;-66
2021/10/03 01:58:26;;;;;;;8.25;2.50;;;18.60;92.00;;;;;;5036059;28;20041;-66
2021/10/03 02:01:00;;;;;;;4.07;2.28;;;18.50;92.00;;;;;;5037168;28;20413;-66
2021/10/03 02:03:29;;;;;;;4.15;2.20;;;18.50;91.70;;;;;;5037270;28;20053;-66
2021/10/03 02:05:57;;;;;;;5.60;2.20;;;18.50;91.90;;;;;;5020089;28;20021;-66
2021/10/03 02:08:24;;;;;;;3.80;2.22;;;18.50;91.60;;;;;;5037047;28;20032;-66
2021/10/03 02:10:53;;;;;;;5.50;2.55;;;18.50;91.70;;;;;;5019502;28;20029;-66
2021/10/03 02:13:25;;;;;;;4.15;2.30;;;18.50;91.70;;;;;;5037715;28;20025;-66
2021/10/03 02:15:53;;;;;;;3.83;2.10;;;18.50;91.70;;;;;;5038130;28;20341;-66
2021/10/03 02:18:21;;;;;;;5.47;2.10;;;18.50;91.60;;;;;;5037713;28;20033;-66
2021/10/03 02:20:55;;;;;;;3.90;2.33;;;18.50;91.60;;;;;;5020233;28;20029;-66
2021/10/03 02:23:23;;;;;;;4.07;2.42;;;18.50;91.70;;;;;;5038353;28;20014;-66
2021/10/03 02:25:51;;;;;;;4.10;2.17;;;18.50;91.50;;;;;;5038208;28;20013;-66
2021/10/03 02:28:21;;;;;;;4.15;2.20;;;18.50;91.50;;;;;;5037678;28;20102;-66
2021/10/03 02:30:50;;;;;;;4.63;2.22;;;18.50;91.50;;;;;;5020079;28;20029;-66
2021/10/03 02:33:17;;;;;;;3.70;2.25;;;18.50;91.60;;;;;;5037656;28;20029;-66
2021/10/03 02:35:45;;;;;;;4.57;2.15;;;18.50;91.60;;;;;;5036498;28;20314;-66
2021/10/03 02:38:15;;;;;;;5.20;2.13;;;18.50;91.60;;;;;;5033725;28;20048;-66
2021/10/03 02:40:44;;;;;;;4.05;2.10;;;18.50;91.50;;;;;;5057067;28;20021;-66
2021/10/03 02:43:13;;;;;;;4.45;2.45;;;18.50;91.80;;;;;;5056725;28;20033;-66
2021/10/03 02:45:50;;;;;;;5.22;2.55;;;18.50;92.10;;;;;;5055976;28;20017;-66
2021/10/03 02:48:20;;;;;;;3.38;2.15;;;18.40;92.10;;;;;;5057313;28;20051;-66
2021/10/03 02:50:48;;;;;;;4.65;2.20;;;18.30;92.30;;;;;;5056413;28;20107;-66
2021/10/03 02:53:17;;;;;;;9.80;2.42;;;18.30;92.70;;;;;;5056328;28;20064;-66
2021/10/03 02:55:44;;;;;;;4.82;2.47;;;18.20;92.90;;;;;;5055611;28;20025;-66
2021/10/03 02:58:11;;;;;;;4.90;2.50;;;18.10;93.20;;;;;;5057151;28;20487;-66
2021/10/03 03:00:41;;;;;;;3.17;2.00;;;18.00;93.30;;;;;;5057257;28;20025;-66
2021/10/03 03:03:08;;;;;;;5.05;2.35;;;17.90;93.50;;;;;;5057155;28;20075;-66
2021/10/03 03:05:35;;;;;;;3.83;2.67;;;17.80;93.80;;;;;;5056493;28;20305;-66
2021/10/03 03:08:03;;;;;;;4.78;2.28;;;17.80;94.00;;;;;;5057312;28;20017;-66
2021/10/03 03:10:32;;;;;;;4.82;2.50;;;17.80;93.90;;;;;;5056051;28;20413;-66
2021/10/03 03:12:59;;;;;;;4.15;2.50;;;17.70;93.80;;;;;;5057222;28;20036;-66
2021/10/03 03:15:27;;;;;;;6.03;2.75;;;17.80;93.60;;;;;;5057003;28;20024;-66
2021/10/03 03:17:54;;;;;;;8.93;3.20;;;17.90;93.40;;;;;;5055136;28;20033;-66
2021/10/03 03:20:21;;;;;;;4.78;2.65;;;18.00;93.10;;;;;;5056112;28;20029;-66
2021/10/03 03:22:49;;;;;;;4.85;2.60;;;18.10;93.00;;;;;;5055745;28;20021;-66
2021/10/03 03:25:19;;;;;;;5.22;2.40;;;18.20;92.90;;;;;;5055996;28;20033;-66
2021/10/03 03:27:46;;;;;;;6.57;2.70;;;18.20;92.60;;;;;;5055079;28;20055;-66
2021/10/03 03:30:14;;;;;;;5.88;3.00;;;18.30;92.70;;;;;;5056023;28;20055;-66
2021/10/03 03:32:42;;;;;;;5.07;2.85;;;18.30;92.50;;;;;;5055832;28;20021;-67
2021/10/03 03:35:10;;;;;;;6.18;2.60;;;18.40;92.50;;;;;;5056568;28;20021;-66
2021/10/03 03:37:39;;;;;;;4.70;2.30;;;18.40;92.40;;;;;;5052227;28;20057;-66
2021/10/03 03:40:08;;;;;;;9.95;2.33;;;18.40;92.20;;;;;;5037280;28;20397;-66
2021/10/03 03:42:36;;;;;;;3.58;2.20;;;18.50;92.00;;;;;;5036912;28;20028;-66
2021/10/03 03:45:04;;;;;;;5.95;2.08;;;18.50;91.90;;;;;;5037475;28;20332;-66
2021/10/03 03:47:31;;;;;;;4.32;2.58;;;18.60;91.80;;;;;;5036826;28;20091;-66
2021/10/03 03:49:59;;;;;;;5.03;2.50;;;18.60;91.80;;;;;;5037024;28;20075;-66
2021/10/03 03:52:27;;;;;;;4.68;2.67;;;18.70;91.80;;;;;;5036819;28;20025;-66
2021/10/03 03:54:54;;;;;;;4.55;2.78;;;18.70;91.90;;;;;;5036828;28;20033;-66
2021/10/03 03:57:21;;;;;;;4.88;2.70;;;18.70;91.70;;;;;;5036855;28;20043;-66
2021/10/03 03:59:49;;;;;;;5.35;2.58;;;18.70;91.80;;;;;;5040145;28;20075;-66
2021/10/03 04:02:17;;;;;;;4.85;2.45;;;18.70;91.90;;;;;;5021735;28;20299;-66
2021/10/03 04:04:44;;;;;;;8.32;3.30;;;18.60;92.20;;;;;;5039258;28;20033;-66
2021/10/03 04:07:12;;;;;;;5.30;2.55;;;18.60;92.40;;;;;;5040134;28;20096;-66
2021/10/03 04:09:40;;;;;;;4.10;2.55;;;18.50;92.60;;;;;;5040061;28;20084;-66
2021/10/03 04:12:08;;;;;;;6.30;2.53;;;18.50;92.60;;;;;;5039251;28;20026;-66
2021/10/03 04:14:35;;;;;;;5.85;2.45;;;18.40;92.80;;;;;;5021687;28;20021;-66
2021/10/03 04:17:03;;;;;;;6.40;2.60;;;18.30;93.10;;;;;;5039620;28;20021;-66
2021/10/03 04:19:31;;;;;;;5.40;2.90;;;18.30;93.10;;;;;;5040157;28;20021;-66
2021/10/03 04:21:59;;;;;;;5.93;3.20;;;18.20;93.10;;;;;;5022439;28;20032;-66
2021/10/03 04:24:26;;;;;;;6.18;2.70;;;18.20;93.40;;;;;;5022371;28;20029;-66
2021/10/03 04:26:54;;;;;;;5.65;2.67;;;18.10;93.30;;;;;;5040441;28;20049;-66
2021/10/03 04:29:21;;;;;;;4.95;2.80;;;18.20;93.20;;;;;;5040358;28;20022;-66
2021/10/03 04:31:48;;;;;;;5.45;2.70;;;18.20;93.30;;;;;;5040349;28;20099;-66
2021/10/03 04:34:15;;;;;;;4.60;2.80;;;18.20;93.10;;;;;;5039712;28;20029;-66
2021/10/03 04:36:43;;;;;;;6.93;2.80;;;18.20;93.20;;;;;;5040232;28;20028;-66
2021/10/03 04:39:12;;;;;;;4.50;2.28;;;18.30;93.00;;;;;;5038741;28;20104;-66
2021/10/03 04:41:40;;;;;;;4.45;2.33;;;18.30;92.90;;;;;;5038729;28;20056;-66
2021/10/03 04:44:08;;;;;;;6.70;3.13;;;18.30;92.60;;;;;;5038813;28;20096;-66
2021/10/03 04:46:35;;;;;;;4.05;2.55;;;18.40;92.60;;;;;;5020966;28;20464;-66
2021/10/03 04:49:02;;;;;;;6.07;2.63;;;18.40;92.40;;;;;;5038603;28;20029;-66
2021/10/03 04:51:30;;;;;;;5.47;3.10;;;18.40;92.50;;;;;;5039092;28;20410;-66
2021/10/03 04:53:57;;;;;;;7.43;3.13;;;18.50;92.80;;;;;;5038691;28;20036;-66
2021/10/03 04:56:24;;;;;;;5.28;3.22;;;18.50;92.50;;;;;;5038427;28;20026;-66
2021/10/03 04:58:52;;;;;;;6.45;3.17;;;18.50;92.60;;;;;;5038803;28;20056;-66
2021/10/03 05:01:20;;;;;;;5.15;3.22;;;18.40;92.70;;;;;;5022327;28;20021;-66
2021/10/03 05:03:47;;;;;;;4.53;2.78;;;18.30;92.90;;;;;;5021769;28;20025;-66
2021/10/03 05:06:15;;;;;;;5.47;3.38;;;18.30;92.90;;;;;;5039181;28;20441;-66
2021/10/03 05:08:42;;;;;;;9.35;4.15;;;18.30;93.00;;;;;;5039065;28;20073;-66
2021/10/03 05:11:11;;;;;;;9.30;4.57;;;18.20;93.50;;;;;;5039086;28;20032;-66
2021/10/03 05:13:38;;;;;;;8.02;3.33;;;18.10;93.80;;;;;;5039230;28;20030;-66
2021/10/03 05:16:05;;;;;;;6.32;3.03;;;17.90;94.40;;;;;;5038964;28;20033;-66
2021/10/03 05:18:36;;;;;;;5.07;2.47;;;17.80;95.00;;;;;;5038456;28;20483;-66
2021/10/03 05:21:05;;;;;;;6.88;3.97;;;17.60;95.20;;;;;;5037972;28;20317;-66
2021/10/03 05:23:32;;;;;;;5.93;4.18;;;17.50;95.90;;;;;;5020480;28;20040;-66
2021/10/03 05:26:00;;;;;;;9.02;3.75;;;17.30;96.30;;;;;;5037870;28;20056;-66
2021/10/03 05:28:27;;;;;;;8.00;3.65;;;17.20;96.80;;;;;;5038372;28;20076;-66
2021/10/03 05:30:55;;;;;;;9.98;4.05;;;17.10;97.30;;;;;;5038255;28;20032;-66
2021/10/03 05:33:23;;;;;;;4.70;3.10;;;17.00;97.70;;;;;;5038155;28;20321;-66
2021/10/03 05:35:50;;;;;;;8.15;3.08;;;16.90;97.70;;;;;;5020937;28;20028;-66
2021/10/03 05:38:18;;;;;;;6.05;3.20;;;16.90;97.60;;;;;;5037495;28;20049;-66
2021/10/03 05:40:45;;;;;;;9.63;3.97;;;16.90;97.80;;;;;;5037959;28;20100;-66
2021/10/03 05:43:12;;;;;;;5.72;3.38;;;16.90;98.10;;;;;;5038370;28;20104;-66
2021/10/03 05:45:40;;;;;;;10.18;4.22;;;16.80;98.20;;;;;;5038483;28;20025;-66
2021/10/03 05:48:08;;;;;;;5.78;3.28;;;16.80;98.50;;;;;;5038701;28;20109;-66
2021/10/03 05:50:35;;;;;;;6.60;4.13;;;16.70;98.90;;;;;;5020810;28;20425;-66
2021/10/03 05:53:04;;;;;;;5.97;3.15;;;16.70;99.00;;;;;;5038311;28;20021;-66
2021/10/03 05:55:32;;;;;;;7.50;3.15;;;16.70;98.80;;;;;;5038968;28;20034;-66
2021/10/03 05:57:59;;;;;;;5.25;3.45;;;16.70;98.80;;;;;;5038650;28;20033;-67
2021/10/03 06:00:30;;;;;;;6.30;3.50;;;16.70;98.80;;;;;;5020531;28;20021;-67
2021/10/03 06:02:58;;;;;;;4.70;3.03;;;16.70;98.50;;;;;;5037161;28;20025;-66
2021/10/03 06:05:25;;;;;;;5.65;3.20;;;16.80;98.50;;;;;;5037632;28;20017;-66
2021/10/03 06:07:53;;;;;;;9.93;3.83;;;16.80;98.40;;;;;;5037380;28;20033;-67
2021/10/03 06:10:21;;;;;;;6.20;3.40;;;16.80;98.70;;;;;;5037010;28;20030;-66
2021/10/03 06:12:49;;;;;;;6.70;3.42;;;16.80;98.70;;;;;;5037128;28;20025;-66
2021/10/03 06:15:16;;;;;;;7.78;3.13;;;16.80;98.80;;;;;;5037031;28;20021;-66
2021/10/03 06:17:44;;;;;;;4.78;2.80;;;16.80;98.70;;;;;;5036844;28;20060;-66
2021/10/03 06:20:13;;;;;;;4.88;3.05;;;16.80;98.80;;;;;;5036284;28;20512;-66
2021/10/03 06:22:44;;;;;;;4.78;2.92;;;16.80;98.70;;;;;;5038264;28;20083;-65
2021/10/03 06:25:13;;;;;;;6.03;3.35;;;16.80;98.80;;;;;;5037972;28;20319;-65
2021/10/03 06:27:41;;;;;;;6.68;3.38;;;16.80;99.00;;;;;;5020109;28;20049;-65
2021/10/03 06:30:09;;;;;;;6.28;3.58;;;16.80;98.70;;;;;;5037771;28;20021;-66
2021/10/03 06:32:38;;;;;;;5.40;3.13;;;16.80;98.50;;;;;;5037547;28;20033;-66
2021/10/03 06:35:07;;;;;;;3.53;2.30;;;16.80;99.00;;;;;;5037515;28;20079;-66
2021/10/03 06:37:34;;;;;;;5.97;3.33;;;16.80;99.20;;;;;;5037516;28;20033;-66
2021/10/03 06:40:03;;;;;;;6.95;3.00;;;16.80;99.40;;;;;;5037378;28;20064;-65
2021/10/03 06:42:33;;;;;;;8.30;3.25;;;16.80;99.40;;;;;;5036428;28;20045;-66
2021/10/03 06:45:00;;;;;;;5.78;3.30;;;16.80;99.40;;;;;;5019070;28;20018;-65
2021/10/03 06:47:28;;;;;;;6.78;3.15;;;16.80;99.50;;;;;;5036462;28;20047;-65
2021/10/03 06:49:55;;;;;;;4.78;2.97;;;16.80;99.30;;;;;;5036666;28;20326;-66
2021/10/03 06:52:23;;;;;;;7.00;3.10;;;16.80;99.20;;;;;;5036658;28;20017;-65
2021/10/03 06:54:50;;;;;;;6.07;3.17;;;16.80;99.80;;;;;;5018858;28;20116;-65
2021/10/03 06:57:18;;;;;;;5.05;3.17;;;16.70;99.90;;;;;;5018725;28;20120;-65
2021/10/03 06:59:45;;;;;;;6.60;3.22;;;16.70;99.90;;;;;;5036366;28;20029;-65
2021/10/03 07:02:21;;;;;;;11.05;3.85;;;16.60;99.90;;;;;;5037238;28;20026;-65
2021/10/03 07:04:48;;;;;;;8.00;2.97;;;16.60;99.90;;;;;;5037374;28;20013;-64
2021/10/03 07:07:16;;;;;;;7.25;3.33;;;16.60;99.90;;;;;;5037082;28;20018;-64
2021/10/03 07:09:43;;;;;;;7.10;3.33;;;16.50;99.90;;;;;;5019829;28;20053;-64
2021/10/03 07:12:10;;;;;;;4.88;2.97;;;16.60;99.90;;;;;;5019676;28;20307;-65
2021/10/03 07:14:38;;;;;;;5.20;3.15;;;16.70;99.90;;;;;;5037744;28;20025;-65
2021/10/03 07:17:06;;;;;;;6.63;2.63;;;16.80;99.90;;;;;;5019605;28;20403;-65
2021/10/03 07:19:37;;;;;;;5.55;3.35;;;16.90;99.90;;;;;;5037467;28;20021;-65
2021/10/03 07:22:05;;;;;;;5.72;2.90;;;16.90;99.60;;;;;;5036168;28;20449;-65
2021/10/03 07:24:32;;;;;;;6.13;2.97;;;16.90;99.40;;;;;;5036187;28;20022;-65
2021/10/03 07:26:59;;;;;;;3.63;2.20;;;17.00;99.10;;;;;;5036027;28;20096;-64
2021/10/03 07:29:27;;;;;;;4.50;2.35;;;17.00;98.00;;;;;;5018637;28;20091;-64
2021/10/03 07:32:01;;;;;;;7.03;3.00;;;17.10;98.10;;;;;;5037604;28;20025;-64
2021/10/03 07:34:29;;;;;;;5.97;2.80;;;17.10;97.60;;;;;;5022358;28;20030;-64
2021/10/03 07:36:57;;;;;;;4.10;2.53;;;17.30;97.70;;;;;;5040408;28;20021;-65
2021/10/03 07:39:25;;;;;;;6.03;2.53;;;17.40;97.10;;;;;;5039787;28;20037;-64
2021/10/03 07:41:52;;;;;;;5.18;2.50;;;17.50;96.00;;;;;;5040046;28;20033;-64
2021/10/03 07:44:20;;;;;;;6.50;2.35;;;17.60;95.80;;;;;;5040611;28;20364;-65
2021/10/03 07:46:47;;;;;;;4.47;2.47;;;17.80;94.80;;;;;;5023056;28;20022;-64
2021/10/03 07:49:14;;;;;;;6.00;2.40;;;17.90;94.80;;;;;;5040687;28;20018;-65
2021/10/03 07:51:42;;;;;;;4.55;2.55;;;18.00;94.90;;;;;;5041063;28;20088;-65
2021/10/03 07:54:10;;;;;;;5.38;2.22;;;18.10;94.00;;;;;;5040563;28;20025;-64
2021/10/03 07:56:37;;;;;;;4.45;2.47;;;18.10;94.20;;;;;;5041002;28;20021;-64
2021/10/03 07:59:05;;;;;;;5.15;2.40;;;18.20;93.70;;;;;;5022872;28;20025;-65
2021/10/03 08:01:32;;;;;;;5.40;2.42;;;18.20;93.50;;;;;;5040119;28;20029;-65
2021/10/03 08:04:05;;;;;;;4.72;2.38;;;18.30;93.10;;;;;;5039836;28;20022;-65
2021/10/03 08:06:33;;;;;;;3.60;1.98;;;18.30;92.30;;;;;;5021791;28;20025;-65
2021/10/03 08:09:01;;;;;;;4.45;2.00;;;18.40;92.20;;;;;;5039479;28;20030;-65
2021/10/03 08:11:28;;;;;;;13.32;3.95;;;18.50;91.90;;;;;;5039320;28;20425;-65
2021/10/03 08:13:56;;;;;;;4.53;2.00;;;18.60;92.10;;;;;;5039207;28;20491;-65
2021/10/03 08:16:23;;;;;;;4.20;2.35;;;18.60;91.30;;;;;;5039189;28;20387;-65
2021/10/03 08:18:51;;;;;;;3.50;1.95;;;18.70;91.10;;;;;;5039056;28;20409;-65
2021/10/03 08:21:19;;;;;;;8.25;2.25;;;18.80;90.70;;;;;;5039693;28;20030;-65
2021/10/03 08:23:46;;;;;;;4.63;2.03;;;18.80;90.60;;;;;;5040160;28;20028;-65
2021/10/03 08:26:13;;;;;;;4.38;2.67;;;18.90;90.70;;;;;;5040617;28;20290;-65
2021/10/03 08:28:41;;;;;;;5.28;2.20;;;18.90;90.40;;;;;;5039931;28;20072;-66
2021/10/03 08:31:09;;;;;;;3.28;1.95;;;19.00;90.40;;;;;;5040118;28;20291;-65
2021/10/03 08:33:38;;;;;;;2.95;1.85;;;19.00;90.30;;;;;;5022329;28;20303;-65
2021/10/03 08:36:05;;;;;;;3.92;2.53;;;19.00;89.10;;;;;;5040301;28;20072;-65
2021/10/03 08:38:33;;;;;;;3.58;2.17;;;19.10;90.20;;;;;;5039897;28;20436;-65
2021/10/03 08:41:04;;;;;;;3.53;1.92;;;19.10;88.20;;;;;;5040200;28;20026;-65
2021/10/03 08:43:32;;;;;;;3.47;2.20;;;19.20;89.80;;;;;;5038102;28;20021;-65
2021/10/03 08:46:00;;;;;;;3.83;2.10;;;19.30;89.10;;;;;;5039022;28;20101;-65
2021/10/03 08:48:29;;;;;;;7.25;2.08;;;19.30;87.90;;;;;;5038717;28;20025;-65
2021/10/03 08:50:56;;;;;;;4.68;1.98;;;19.40;89.00;;;;;;5039145;28;20017;-65
2021/10/03 08:53:24;;;;;;;3.65;2.25;;;19.40;86.80;;;;;;5021012;28;20352;-65
2021/10/03 08:55:56;;;;;;;3.10;1.98;;;19.60;86.20;;;;;;5038577;28;20033;-65
2021/10/03 08:58:25;;;;;;;3.83;2.42;;;19.60;86.10;;;;;;5038794;28;20048;-65
2021/10/03 09:00:53;;;;;;;4.95;1.95;;;19.70;85.30;;;;;;5004527;28;20021;-65
2021/10/03 09:03:21;;;;;;;3.03;1.73;;;19.70;85.70;;;;;;5038376;28;20022;-66
2021/10/03 09:05:53;;;;;;;5.43;2.05;;;19.80;85.80;;;;;;5039842;28;20401;-65
2021/10/03 09:08:22;;;;;;;3.65;2.20;;;19.80;85.10;;;;;;5039405;28;20022;-65
2021/10/03 09:10:54;;;;;;;3.10;1.77;;;19.80;83.90;;;;;;5039213;28;20040;-65
2021/10/03 09:13:42;;;;;;;4.55;2.08;;;19.90;85.00;;;;;;5039631;28;20409;-65
2021/10/03 09:16:33;;;;;;;3.38;1.88;;;19.90;84.40;;;;;;5039600;28;20309;-65
2021/10/03 09:19:12;;;;;;;11.95;2.00;;;20.00;83.90;;;;;;5038782;28;20201;-65
2021/10/03 09:21:45;;;;;;;3.28;2.00;;;20.00;82.50;;;;;;5039498;28;20028;-65
2021/10/03 09:24:17;;;;;;;3.40;1.73;;;20.10;82.60;;;;;;5038859;28;20033;-65
2021/10/03 09:27:03;;;;;;;3.30;1.90;;;20.20;84.90;;;;;;5038485;28;20104;-65
2021/10/03 09:29:36;;;;;;;3.45;2.20;;;20.20;82.50;;;;;;5037828;28;20375;-65
2021/10/03 09:32:08;;;;;;;4.35;1.58;;;20.20;81.00;;;;;;5038038;28;20480;-65
2021/10/03 09:34:37;;;;;;;5.10;2.10;;;20.30;81.00;;;;;;5038311;28;20032;-65
2021/10/03 09:37:25;;;;;;;3.50;2.15;;;20.40;80.90;;;;;;5037725;28;20414;-65
2021/10/03 09:40:13;;;;;;;6.60;2.00;;;20.30;82.40;;;;;;5058066;28;20044;-65
2021/10/03 09:42:40;;;;;;;3.30;1.95;;;20.30;83.40;;;;;;5057740;28;20424;-65
2021/10/03 09:45:15;;;;;;;4.95;1.83;;;20.40;80.40;;;;;;5058387;28;20025;-65
2021/10/03 09:47:57;;;;;;;2.85;1.80;;;20.50;80.10;;;;;;5058735;28;20427;-65
2021/10/03 09:50:25;;;;;;;2.83;1.65;;;20.50;79.40;;;;;;5058768;28;20028;-65
2021/10/03 09:52:53;;;;;;;3.70;1.80;;;20.60;78.90;;;;;;5058976;28;20203;-65
2021/10/03 09:55:25;;;;;;;3.13;1.75;;;20.60;79.40;;;;;;5057593;28;20313;-65
2021/10/03 09:57:57;;;;;;;2.80;1.52;;;20.60;79.30;;;;;;5058199;28;20162;-65
2021/10/03 10:00:29;;;;;;;4.28;1.52;;;20.60;80.60;;;;;;5058049;28;20025;-65
2021/10/03 10:02:57;;;;;;;2.22;1.50;;;20.50;79.60;;;;;;5058769;28;20017;-66
2021/10/03 10:05:26;;;;;;;4.70;2.00;;;20.60;78.90;;;;;;5057427;28;20424;-66
2021/10/03 10:07:56;;;;;;;3.95;2.13;;;20.60;78.80;;;;;;5057673;28;20435;-66
2021/10/03 10:10:24;;;;;;;3.75;2.08;;;20.70;78.40;;;;;;5056901;28;20033;-65
2021/10/03 10:13:15;;;;;;;4.03;1.55;;;20.80;79.70;;;;;;5039418;28;20431;-66
2021/10/03 10:15:43;;;;;;;2.05;1.25;;;20.90;78.90;;;;;;5056728;28;20084;-65
2021/10/03 10:18:25;;;;;;;2.45;1.80;;;21.00;77.20;;;;;;5057103;28;20435;-66
2021/10/03 10:20:54;;;;;;;4.18;2.10;;;21.10;77.80;;;;;;5056833;28;20060;-66
2021/10/03 10:23:29;;;;;;;3.45;2.30;;;21.00;79.00;;;;;;5057526;28;20025;-66
2021/10/03 10:25:59;;;;;;;4.22;1.70;;;21.00;78.20;;;;;;5057306;28;20024;-66
2021/10/03 10:28:30;;;;;;;3.10;1.90;;;21.00;77.90;;;;;;5057588;28;20333;-66
2021/10/03 10:31:18;;;;;;;4.35;1.77;;;20.90;77.00;;;;;;5057570;28;20029;-66
2021/10/03 10:33:57;;;;;;;2.45;1.48;;;20.90;78.10;;;;;;5058027;28;20300;-66
2021/10/03 10:36:30;;;;;;;4.20;1.70;;;20.80;77.20;;;;;;5057739;28;20032;-66
2021/10/03 10:39:12;;;;;;;6.60;1.83;;;20.80;78.00;;;;;;5043229;28;20072;-66
2021/10/03 10:41:42;;;;;;;6.55;2.13;;;20.70;79.20;;;;;;5038125;28;20044;-66
2021/10/03 10:44:34;;;;;;;8.45;2.28;;;20.70;78.00;;;;;;5037642;28;20051;-66
2021/10/03 10:47:11;;;;;;;4.45;1.98;;;20.70;78.00;;;;;;5032264;28;20111;-66
2021/10/03 10:49:43;;;;;;;4.60;2.28;;;20.60;79.10;;;;;;5037120;28;20032;-65
2021/10/03 10:52:20;;;;;;;2.78;1.77;;;20.60;79.10;;;;;;5036526;28;20049;-66
2021/10/03 10:55:09;;;;;;;3.70;1.77;;;20.60;78.90;;;;;;5036875;28;20294;-66
2021/10/03 10:57:52;;;;;;;4.63;1.92;;;20.60;78.30;;;;;;5037058;28;20031;-66
2021/10/03 11:00:22;;;;;;;3.45;1.90;;;20.60;78.80;;;;;;5036927;28;20039;-66
2021/10/03 11:02:55;;;;;;;4.20;1.90;;;20.50;81.10;;;;;;5019595;28;20048;-66
2021/10/03 11:05:34;;;;;;;2.45;1.60;;;20.40;82.30;;;;;;5036949;28;20035;-66
2021/10/03 11:08:16;;;;;;;2.40;1.48;;;20.20;80.80;;;;;;5039618;28;20021;-66
2021/10/03 11:10:59;;;;;;;3.88;1.75;;;20.20;80.70;;;;;;5041341;28;20017;-66
2021/10/03 11:13:44;;;;;;;3.42;2.05;;;20.20;81.90;;;;;;5042200;28;20394;-66
2021/10/03 11:19:34;;;;;;;3.88;1.95;;;20.50;81.20;;;;;;5040867;28;20027;-66
2021/10/03 11:22:19;;;;;;;2.92;1.70;;;20.60;79.10;;;;;;5041314;28;20037;-66
2021/10/03 11:24:50;;;;;;;3.88;1.70;;;20.70;78.90;;;;;;5040174;28;20457;-66
2021/10/03 11:27:21;;;;;;;3.70;2.00;;;20.80;78.70;;;;;;5040935;28;20022;-66
2021/10/03 11:29:56;;;;;;;3.08;1.60;;;20.90;79.80;;;;;;5040056;28;20108;-66
2021/10/03 11:32:30;;;;;;;5.30;2.08;;;20.90;78.60;;;;;;5040279;28;20025;-66
2021/10/03 11:35:14;;;;;;;2.80;1.80;;;21.00;78.50;;;;;;5040205;28;20043;-66
2021/10/03 11:37:48;;;;;;;5.43;1.80;;;21.10;79.70;;;;;;5025857;28;20124;-66
2021/10/03 11:40:24;;;;;;;3.47;1.92;;;21.10;79.30;;;;;;5060251;28;20025;-66
2021/10/03 11:42:57;;;;;;;3.38;1.70;;;21.00;80.90;;;;;;5060008;28;20029;-66
2021/10/03 11:45:35;;;;;;;5.88;2.08;;;20.80;82.40;;;;;;5059749;28;20478;-66
2021/10/03 11:48:08;;;;;;;4.38;1.95;;;20.60;83.30;;;;;;5059581;28;20107;-66
2021/10/03 11:50:45;;;;;;;6.80;3.05;;;20.30;84.40;;;;;;5060543;28;20025;-66
2021/10/03 11:53:25;;;;;;;3.38;1.85;;;20.10;85.50;;;;;;5060617;28;20028;-66
2021/10/03 11:56:09;;;;;;;3.58;1.88;;;19.90;84.50;;;;;;5060721;28;20030;-66
2021/10/03 11:58:42;;;;;;;3.50;2.08;;;19.90;84.70;;;;;;5060914;28;20025;-66
2021/10/03 12:01:10;;;;;;;4.43;2.40;;;19.90;83.60;;;;;;5060663;28;20086;-66
2021/10/03 12:03:53;;;;;;;6.13;2.08;;;20.10;84.30;;;;;;5060556;28;20025;-66
2021/10/03 12:06:32;;;;;;;2.85;1.50;;;20.20;83.50;;;;;;5059282;28;20070;-66
2021/10/03 12:09:11;;;;;;;2.92;1.90;;;20.40;82.50;;;;;;5060120;28;20029;-66
2021/10/03 12:11:54;;;;;;;3.08;1.67;;;20.50;82.60;;;;;;5059593;28;20025;-66
2021/10/03 12:14:23;;;;;;;3.20;1.98;;;20.60;81.40;;;;;;5059260;28;20024;-66
2021/10/03 12:16:56;;;;;;;3.75;1.67;;;20.70;82.60;;;;;;5058117;28;20094;-66
2021/10/03 12:19:28;;;;;;;4.68;2.10;;;20.80;81.00;;;;;;5057973;28;20037;-66
2021/10/03 12:22:05;;;;;;;3.53;1.88;;;20.80;81.80;;;;;;5059624;28;20024;-66
2021/10/03 12:24:32;;;;;;;;;;;20.90;80.90;;;;;;5058362;28;20115;-66
2021/10/03 12:27:00;;;;;;;5.60;2.05;;;20.90;82.10;;;;;;5059593;28;19904;-66
2021/10/03 12:29:27;;;;;;;4.03;1.60;;;21.00;80.50;;;;;;5057848;28;20033;-66
2021/10/03 12:32:04;;;;;;;5.70;2.30;;;21.10;79.80;;;;;;5059781;28;20017;-66
2021/10/03 12:34:35;;;;;;;3.55;1.50;;;21.20;80.00;;;;;;5060491;28;20432;-66
2021/10/03 12:37:12;;;;;;;3.03;1.58;;;21.30;79.40;;;;;;5059915;28;20374;-66
2021/10/03 12:39:45;;;;;;;5.07;2.03;;;21.30;79.70;;;;;;5039887;28;20056;-66
2021/10/03 12:42:14;;;;;;;3.20;2.13;;;21.30;79.40;;;;;;5040212;28;20057;-66
2021/10/03 12:44:45;;;;;;;4.68;2.28;;;21.40;78.50;;;;;;5039838;28;20022;-66
2021/10/03 12:47:14;;;;;;;3.47;2.08;;;21.40;78.20;;;;;;5040050;28;20028;-66
2021/10/03 12:49:43;;;;;;;3.35;1.48;;;21.50;78.60;;;;;;5039135;28;20322;-66
2021/10/03 12:52:12;;;;;;;3.08;1.85;;;21.50;77.30;;;;;;5038614;28;20029;-66
2021/10/03 12:54:42;;;;;;;5.95;2.00;;;21.50;77.40;;;;;;5038945;28;20029;-66
2021/10/03 12:57:11;;;;;;;3.50;1.70;;;21.50;78.00;;;;;;5039051;28;20025;-66
2021/10/03 12:59:38;;;;;;;4.63;1.73;;;21.40;77.80;;;;;;5038362;28;20022;-66
2021/10/03 13:02:06;;;;;;;3.20;1.52;;;21.40;78.60;;;;;;5038303;28;20022;-66
2021/10/03 13:04:34;;;;;;;2.70;1.70;;;21.40;78.10;;;;;;5039030;28;20018;-66
2021/10/03 13:07:02;;;;;;;5.32;2.20;;;21.50;78.30;;;;;;5038543;28;20082;-66